sensor_id;sensor_type;location;lat;lon;timestamp;P1;durP1;ratioP1;P2;durP2;ratioP2
487;SDS011;16586;48.976;9.584;2023-04-12T00:02:01;404.70;;;385.40;;
487;SDS011;16586;48.976;9.584;2023-04-12T00:04:28;440.55;;;419.55;;
487;SDS011;16586;48.976;9.584;2023-04-12T00:06:58;419.00;;;399.00;;
487;SDS011;16586;48.976;9.584;2023-04-12T00:09:25;469.23;;;446.85;;
487;SDS011;16586;48.976;9.584;2023-04-12T00:11:54;475.38;;;452.67;;
487;SDS011;16586;48.976;9.584;2023-04-12T00:14:21;484.17;;;461.08;;
487;SDS011;16586;48.976;9.584;2023-04-12T00:16:48;491.83;;;468.35;;
487;SDS011;16586;48.976;9.584;2023-04-12T00:19:16;457.33;;;435.50;;
487;SDS011;16586;48.976;9.584;2023-04-12T00:21:43;481.00;;;458.03;;
487;SDS011;16586;48.976;9.584;2023-04-12T00:24:11;489.93;;;466.53;;
487;SDS011;16586;48.976;9.584;2023-04-12T00:26:37;476.92;;;454.13;;
487;SDS011;16586;48.976;9.584;2023-04-12T00:29:04;407.52;;;388.08;;
487;SDS011;16586;48.976;9.584;2023-04-12T00:31:31;462.10;;;440.05;;
487;SDS011;16586;48.976;9.584;2023-04-12T00:34:01;474.30;;;451.67;;
487;SDS011;16586;48.976;9.584;2023-04-12T00:36:29;478.25;;;455.45;;
487;SDS011;16586;48.976;9.584;2023-04-12T00:38:56;436.95;;;416.13;;
487;SDS011;16586;48.976;9.584;2023-04-12T00:41:22;442.25;;;421.13;;
487;SDS011;16586;48.976;9.584;2023-04-12T00:43:51;486.13;;;462.92;;
487;SDS011;16586;48.976;9.584;2023-04-12T00:46:18;462.52;;;440.45;;
487;SDS011;16586;48.976;9.584;2023-04-12T00:48:45;423.48;;;403.25;;
487;SDS011;16586;48.976;9.584;2023-04-12T00:51:12;503.35;;;479.33;;
487;SDS011;16586;48.976;9.584;2023-04-12T00:53:41;427.10;;;406.73;;
487;SDS011;16586;48.976;9.584;2023-04-12T00:56:08;468.75;;;446.38;;
487;SDS011;16586;48.976;9.584;2023-04-12T00:58:35;442.95;;;421.83;;
487;SDS011;16586;48.976;9.584;2023-04-12T01:01:02;454.65;;;432.95;;
487;SDS011;16586;48.976;9.584;2023-04-12T01:03:29;432.30;;;411.65;;
487;SDS011;16586;48.976;9.584;2023-04-12T01:05:59;417.60;;;397.67;;
487;SDS011;16586;48.976;9.584;2023-04-12T01:08:36;429.20;;;408.70;;
487;SDS011;16586;48.976;9.584;2023-04-12T01:11:14;433.40;;;412.73;;
487;SDS011;16586;48.976;9.584;2023-04-12T01:13:48;452.63;;;431.02;;
487;SDS011;16586;48.976;9.584;2023-04-12T01:16:21;450.23;;;428.73;;
487;SDS011;16586;48.976;9.584;2023-04-12T01:18:53;442.27;;;421.17;;
487;SDS011;16586;48.976;9.584;2023-04-12T01:21:28;493.05;;;469.50;;
487;SDS011;16586;48.976;9.584;2023-04-12T01:24:02;455.77;;;434.00;;
487;SDS011;16586;48.976;9.584;2023-04-12T01:26:42;457.27;;;435.47;;
487;SDS011;16586;48.976;9.584;2023-04-12T01:29:12;477.13;;;454.35;;
487;SDS011;16586;48.976;9.584;2023-04-12T01:31:43;438.73;;;417.80;;
487;SDS011;16586;48.976;9.584;2023-04-12T01:34:14;499.77;;;475.92;;
487;SDS011;16586;48.976;9.584;2023-04-12T01:36:42;457.50;;;435.67;;
487;SDS011;16586;48.976;9.584;2023-04-12T01:39:12;464.17;;;442.00;;
487;SDS011;16586;48.976;9.584;2023-04-12T01:41:39;491.85;;;468.35;;
487;SDS011;16586;48.976;9.584;2023-04-12T01:44:12;461.05;;;439.05;;
487;SDS011;16586;48.976;9.584;2023-04-12T01:46:39;437.13;;;416.27;;
487;SDS011;16586;48.976;9.584;2023-04-12T01:49:08;479.10;;;456.23;;
487;SDS011;16586;48.976;9.584;2023-04-12T01:51:38;458.73;;;436.83;;
487;SDS011;16586;48.976;9.584;2023-04-12T01:54:16;443.50;;;422.30;;
487;SDS011;16586;48.976;9.584;2023-04-12T01:56:48;423.45;;;403.23;;
487;SDS011;16586;48.976;9.584;2023-04-12T01:59:27;424.15;;;403.90;;
487;SDS011;16586;48.976;9.584;2023-04-12T02:01:57;449.25;;;427.80;;
487;SDS011;16586;48.976;9.584;2023-04-12T02:04:24;405.15;;;385.83;;
487;SDS011;16586;48.976;9.584;2023-04-12T02:06:52;448.67;;;427.25;;
487;SDS011;16586;48.976;9.584;2023-04-12T02:09:19;456.27;;;434.48;;
487;SDS011;16586;48.976;9.584;2023-04-12T02:11:48;466.77;;;444.50;;
487;SDS011;16586;48.976;9.584;2023-04-12T02:14:15;458.63;;;436.75;;
487;SDS011;16586;48.976;9.584;2023-04-12T02:16:43;512.15;;;487.73;;
487;SDS011;16586;48.976;9.584;2023-04-12T02:19:10;454.13;;;432.45;;
487;SDS011;16586;48.976;9.584;2023-04-12T02:21:40;492.43;;;468.93;;
487;SDS011;16586;48.976;9.584;2023-04-12T02:24:08;410.73;;;391.13;;
487;SDS011;16586;48.976;9.584;2023-04-12T02:26:36;497.02;;;473.30;;
487;SDS011;16586;48.976;9.584;2023-04-12T02:29:04;495.85;;;472.20;;
487;SDS011;16586;48.976;9.584;2023-04-12T02:31:33;482.65;;;459.63;;
487;SDS011;16586;48.976;9.584;2023-04-12T02:34:02;512.10;;;487.67;;
487;SDS011;16586;48.976;9.584;2023-04-12T02:36:28;471.33;;;448.83;;
487;SDS011;16586;48.976;9.584;2023-04-12T02:38:55;512.53;;;488.08;;
487;SDS011;16586;48.976;9.584;2023-04-12T02:41:22;520.45;;;495.65;;
487;SDS011;16586;48.976;9.584;2023-04-12T02:43:50;524.78;;;499.75;;
487;SDS011;16586;48.976;9.584;2023-04-12T02:46:18;453.10;;;431.50;;
487;SDS011;16586;48.976;9.584;2023-04-12T02:48:45;476.05;;;453.35;;
487;SDS011;16586;48.976;9.584;2023-04-12T02:51:14;466.08;;;443.85;;
487;SDS011;16586;48.976;9.584;2023-04-12T02:53:40;490.95;;;467.52;;
487;SDS011;16586;48.976;9.584;2023-04-12T02:56:07;551.47;;;525.17;;
487;SDS011;16586;48.976;9.584;2023-04-12T02:58:35;561.80;;;535.00;;
487;SDS011;16586;48.976;9.584;2023-04-12T03:01:02;478.27;;;455.45;;
487;SDS011;16586;48.976;9.584;2023-04-12T03:03:31;537.00;;;511.40;;
487;SDS011;16586;48.976;9.584;2023-04-12T03:05:58;476.17;;;453.45;;
487;SDS011;16586;48.976;9.584;2023-04-12T03:08:27;499.13;;;475.30;;
487;SDS011;16586;48.976;9.584;2023-04-12T03:10:54;536.05;;;510.50;;
487;SDS011;16586;48.976;9.584;2023-04-12T03:13:20;554.35;;;527.90;;
487;SDS011;16586;48.976;9.584;2023-04-12T03:15:47;558.20;;;531.58;;
487;SDS011;16586;48.976;9.584;2023-04-12T03:18:14;551.93;;;525.60;;
487;SDS011;16586;48.976;9.584;2023-04-12T03:20:45;524.83;;;499.83;;
487;SDS011;16586;48.976;9.584;2023-04-12T03:23:12;521.90;;;497.00;;
487;SDS011;16586;48.976;9.584;2023-04-12T03:25:40;552.83;;;526.42;;
487;SDS011;16586;48.976;9.584;2023-04-12T03:28:07;560.15;;;533.42;;
487;SDS011;16586;48.976;9.584;2023-04-12T03:30:34;577.58;;;550.03;;
487;SDS011;16586;48.976;9.584;2023-04-12T03:33:01;533.90;;;508.42;;
487;SDS011;16586;48.976;9.584;2023-04-12T03:35:27;560.17;;;533.45;;
487;SDS011;16586;48.976;9.584;2023-04-12T03:37:54;572.03;;;544.72;;
487;SDS011;16586;48.976;9.584;2023-04-12T03:40:21;568.85;;;541.70;;
487;SDS011;16586;48.976;9.584;2023-04-12T03:42:49;583.93;;;556.07;;
487;SDS011;16586;48.976;9.584;2023-04-12T03:45:16;574.10;;;546.70;;
487;SDS011;16586;48.976;9.584;2023-04-12T03:47:42;635.23;;;604.93;;
487;SDS011;16586;48.976;9.584;2023-04-12T03:50:09;577.20;;;549.70;;
487;SDS011;16586;48.976;9.584;2023-04-12T03:52:36;604.85;;;576.00;;
487;SDS011;16586;48.976;9.584;2023-04-12T03:55:04;627.10;;;597.20;;
487;SDS011;16586;48.976;9.584;2023-04-12T03:57:31;601.78;;;573.08;;
487;SDS011;16586;48.976;9.584;2023-04-12T03:59:59;614.97;;;585.65;;
487;SDS011;16586;48.976;9.584;2023-04-12T04:02:26;628.15;;;598.20;;
487;SDS011;16586;48.976;9.584;2023-04-12T04:04:53;577.63;;;550.08;;
487;SDS011;16586;48.976;9.584;2023-04-12T04:07:20;616.58;;;587.17;;
487;SDS011;16586;48.976;9.584;2023-04-12T04:09:47;574.40;;;547.00;;
487;SDS011;16586;48.976;9.584;2023-04-12T04:12:14;628.90;;;598.90;;
487;SDS011;16586;48.976;9.584;2023-04-12T04:14:41;581.42;;;553.70;;
487;SDS011;16586;48.976;9.584;2023-04-12T04:17:09;581.33;;;553.60;;
487;SDS011;16586;48.976;9.584;2023-04-12T04:19:35;606.80;;;577.85;;
487;SDS011;16586;48.976;9.584;2023-04-12T04:22:02;619.67;;;590.13;;
487;SDS011;16586;48.976;9.584;2023-04-12T04:24:29;585.17;;;557.27;;
487;SDS011;16586;48.976;9.584;2023-04-12T04:26:55;635.08;;;604.78;;
487;SDS011;16586;48.976;9.584;2023-04-12T04:29:22;647.88;;;616.97;;
487;SDS011;16586;48.976;9.584;2023-04-12T04:31:50;632.20;;;602.05;;
487;SDS011;16586;48.976;9.584;2023-04-12T04:34:19;717.60;;;683.38;;
487;SDS011;16586;48.976;9.584;2023-04-12T04:36:46;606.40;;;577.47;;
487;SDS011;16586;48.976;9.584;2023-04-12T04:39:12;525.65;;;500.55;;
487;SDS011;16586;48.976;9.584;2023-04-12T04:41:39;488.10;;;464.80;;
487;SDS011;16586;48.976;9.584;2023-04-12T04:44:06;460.80;;;438.80;;
487;SDS011;16586;48.976;9.584;2023-04-12T04:46:34;463.88;;;441.77;;
487;SDS011;16586;48.976;9.584;2023-04-12T04:49:01;476.97;;;454.20;;
487;SDS011;16586;48.976;9.584;2023-04-12T04:51:30;473.95;;;451.35;;
487;SDS011;16586;48.976;9.584;2023-04-12T04:53:57;412.23;;;392.55;;
487;SDS011;16586;48.976;9.584;2023-04-12T04:56:26;383.67;;;365.35;;
487;SDS011;16586;48.976;9.584;2023-04-12T04:58:53;385.75;;;367.35;;
487;SDS011;16586;48.976;9.584;2023-04-12T05:01:19;384.52;;;366.15;;
487;SDS011;16586;48.976;9.584;2023-04-12T05:03:49;413.00;;;393.30;;
487;SDS011;16586;48.976;9.584;2023-04-12T05:06:16;413.10;;;393.40;;
487;SDS011;16586;48.976;9.584;2023-04-12T05:08:44;382.45;;;364.15;;
487;SDS011;16586;48.976;9.584;2023-04-12T05:11:11;402.48;;;383.27;;
487;SDS011;16586;48.976;9.584;2023-04-12T05:13:37;415.33;;;395.52;;
487;SDS011;16586;48.976;9.584;2023-04-12T05:16:05;382.85;;;364.55;;
487;SDS011;16586;48.976;9.584;2023-04-12T05:18:32;425.42;;;405.13;;
487;SDS011;16586;48.976;9.584;2023-04-12T05:21:00;371.38;;;353.63;;
487;SDS011;16586;48.976;9.584;2023-04-12T05:23:31;423.73;;;403.52;;
487;SDS011;16586;48.976;9.584;2023-04-12T05:26:01;369.80;;;352.10;;
487;SDS011;16586;48.976;9.584;2023-04-12T05:28:28;355.77;;;338.77;;
487;SDS011;16586;48.976;9.584;2023-04-12T05:30:54;356.53;;;339.50;;
487;SDS011;16586;48.976;9.584;2023-04-12T05:33:21;426.13;;;405.77;;
487;SDS011;16586;48.976;9.584;2023-04-12T05:35:48;431.85;;;411.25;;
487;SDS011;16586;48.976;9.584;2023-04-12T05:38:15;452.70;;;431.10;;
487;SDS011;16586;48.976;9.584;2023-04-12T05:40:41;439.63;;;418.63;;
487;SDS011;16586;48.976;9.584;2023-04-12T05:43:10;504.90;;;480.80;;
487;SDS011;16586;48.976;9.584;2023-04-12T05:45:37;533.60;;;508.10;;
487;SDS011;16586;48.976;9.584;2023-04-12T05:48:04;588.63;;;560.55;;
487;SDS011;16586;48.976;9.584;2023-04-12T05:50:31;585.17;;;557.28;;
487;SDS011;16586;48.976;9.584;2023-04-12T05:52:59;603.88;;;575.08;;
487;SDS011;16586;48.976;9.584;2023-04-12T05:55:26;550.85;;;524.55;;
487;SDS011;16586;48.976;9.584;2023-04-12T05:57:52;617.40;;;587.95;;
487;SDS011;16586;48.976;9.584;2023-04-12T06:00:21;563.53;;;536.63;;
487;SDS011;16586;48.976;9.584;2023-04-12T06:02:48;582.83;;;555.03;;
487;SDS011;16586;48.976;9.584;2023-04-12T06:05:16;600.17;;;571.55;;
487;SDS011;16586;48.976;9.584;2023-04-12T06:07:43;586.22;;;558.25;;
487;SDS011;16586;48.976;9.584;2023-04-12T06:10:11;608.67;;;579.65;;
487;SDS011;16586;48.976;9.584;2023-04-12T06:12:38;650.58;;;619.55;;
487;SDS011;16586;48.976;9.584;2023-04-12T06:15:06;643.47;;;612.80;;
487;SDS011;16586;48.976;9.584;2023-04-12T06:17:34;707.55;;;673.80;;
487;SDS011;16586;48.976;9.584;2023-04-12T06:20:01;747.47;;;711.85;;
487;SDS011;16586;48.976;9.584;2023-04-12T06:22:32;699.78;;;666.40;;
487;SDS011;16586;48.976;9.584;2023-04-12T06:24:58;466.80;;;444.50;;
487;SDS011;16586;48.976;9.584;2023-04-12T06:27:25;439.63;;;418.63;;
487;SDS011;16586;48.976;9.584;2023-04-12T06:29:52;387.83;;;369.33;;
487;SDS011;16586;48.976;9.584;2023-04-12T06:32:19;397.93;;;378.93;;
487;SDS011;16586;48.976;9.584;2023-04-12T06:34:47;319.65;;;304.38;;
487;SDS011;16586;48.976;9.584;2023-04-12T06:37:14;312.53;;;297.60;;
487;SDS011;16586;48.976;9.584;2023-04-12T06:39:41;353.40;;;336.53;;
487;SDS011;16586;48.976;9.584;2023-04-12T06:42:07;328.88;;;313.17;;
487;SDS011;16586;48.976;9.584;2023-04-12T06:44:34;398.10;;;379.10;;
487;SDS011;16586;48.976;9.584;2023-04-12T06:47:01;345.90;;;329.40;;
487;SDS011;16586;48.976;9.584;2023-04-12T06:49:28;307.60;;;292.90;;
487;SDS011;16586;48.976;9.584;2023-04-12T06:51:56;316.90;;;301.77;;
487;SDS011;16586;48.976;9.584;2023-04-12T06:54:22;302.83;;;288.33;;
487;SDS011;16586;48.976;9.584;2023-04-12T06:56:53;311.33;;;296.42;;
487;SDS011;16586;48.976;9.584;2023-04-12T06:59:21;349.00;;;332.33;;
487;SDS011;16586;48.976;9.584;2023-04-12T07:01:48;312.83;;;297.88;;
487;SDS011;16586;48.976;9.584;2023-04-12T07:04:14;325.60;;;310.00;;
487;SDS011;16586;48.976;9.584;2023-04-12T07:06:41;356.55;;;339.55;;
487;SDS011;16586;48.976;9.584;2023-04-12T07:09:09;351.90;;;335.10;;
487;SDS011;16586;48.976;9.584;2023-04-12T07:11:36;371.77;;;354.00;;
487;SDS011;16586;48.976;9.584;2023-04-12T07:14:03;333.05;;;317.15;;
487;SDS011;16586;48.976;9.584;2023-04-12T07:16:30;406.15;;;386.75;;
487;SDS011;16586;48.976;9.584;2023-04-12T07:18:57;341.13;;;324.83;;
487;SDS011;16586;48.976;9.584;2023-04-12T07:21:24;382.95;;;364.65;;
487;SDS011;16586;48.976;9.584;2023-04-12T07:23:51;360.50;;;343.30;;
487;SDS011;16586;48.976;9.584;2023-04-12T07:26:19;373.27;;;355.47;;
487;SDS011;16586;48.976;9.584;2023-04-12T07:28:46;368.55;;;350.95;;
487;SDS011;16586;48.976;9.584;2023-04-12T07:31:13;437.75;;;416.88;;
487;SDS011;16586;48.976;9.584;2023-04-12T07:33:40;390.30;;;371.67;;
487;SDS011;16586;48.976;9.584;2023-04-12T07:36:07;454.92;;;433.23;;
487;SDS011;16586;48.976;9.584;2023-04-12T07:38:34;412.10;;;392.40;;
487;SDS011;16586;48.976;9.584;2023-04-12T07:41:00;402.50;;;383.30;;
487;SDS011;16586;48.976;9.584;2023-04-12T07:43:28;454.00;;;432.35;;
487;SDS011;16586;48.976;9.584;2023-04-12T07:45:55;415.70;;;395.85;;
487;SDS011;16586;48.976;9.584;2023-04-12T07:48:22;427.73;;;407.33;;
487;SDS011;16586;48.976;9.584;2023-04-12T07:50:49;426.13;;;405.80;;
487;SDS011;16586;48.976;9.584;2023-04-12T07:53:16;425.25;;;404.95;;
487;SDS011;16586;48.976;9.584;2023-04-12T07:55:44;424.13;;;403.88;;
487;SDS011;16586;48.976;9.584;2023-04-12T07:58:11;426.70;;;406.33;;
487;SDS011;16586;48.976;9.584;2023-04-12T08:00:39;469.27;;;446.88;;
487;SDS011;16586;48.976;9.584;2023-04-12T08:03:06;483.27;;;460.17;;
487;SDS011;16586;48.976;9.584;2023-04-12T08:05:32;472.20;;;449.67;;
487;SDS011;16586;48.976;9.584;2023-04-12T08:07:59;469.08;;;446.70;;
487;SDS011;16586;48.976;9.584;2023-04-12T08:10:26;466.40;;;444.13;;
487;SDS011;16586;48.976;9.584;2023-04-12T08:12:54;474.73;;;452.08;;
487;SDS011;16586;48.976;9.584;2023-04-12T08:15:20;493.10;;;469.60;;
487;SDS011;16586;48.976;9.584;2023-04-12T08:17:49;511.80;;;487.40;;
487;SDS011;16586;48.976;9.584;2023-04-12T08:20:15;486.17;;;462.98;;
487;SDS011;16586;48.976;9.584;2023-04-12T08:22:43;506.30;;;482.13;;
487;SDS011;16586;48.976;9.584;2023-04-12T08:25:10;502.93;;;478.93;;
487;SDS011;16586;48.976;9.584;2023-04-12T08:27:38;417.37;;;397.47;;
487;SDS011;16586;48.976;9.584;2023-04-12T08:30:07;436.63;;;415.80;;
487;SDS011;16586;48.976;9.584;2023-04-12T08:32:34;440.73;;;419.67;;
487;SDS011;16586;48.976;9.584;2023-04-12T08:35:03;430.17;;;409.63;;
487;SDS011;16586;48.976;9.584;2023-04-12T08:37:30;466.70;;;444.40;;
487;SDS011;16586;48.976;9.584;2023-04-12T08:39:57;446.05;;;424.75;;
487;SDS011;16586;48.976;9.584;2023-04-12T08:42:24;420.23;;;400.15;;
487;SDS011;16586;48.976;9.584;2023-04-12T08:44:52;473.38;;;450.77;;
487;SDS011;16586;48.976;9.584;2023-04-12T08:47:19;447.13;;;425.80;;
487;SDS011;16586;48.976;9.584;2023-04-12T08:49:47;475.80;;;453.10;;
487;SDS011;16586;48.976;9.584;2023-04-12T08:52:15;485.80;;;462.60;;
487;SDS011;16586;48.976;9.584;2023-04-12T08:54:42;500.65;;;476.75;;
487;SDS011;16586;48.976;9.584;2023-04-12T08:57:09;472.27;;;449.75;;
487;SDS011;16586;48.976;9.584;2023-04-12T08:59:38;493.38;;;469.83;;
487;SDS011;16586;48.976;9.584;2023-04-12T09:02:07;532.35;;;506.95;;
487;SDS011;16586;48.976;9.584;2023-04-12T09:04:42;514.20;;;489.70;;
487;SDS011;16586;48.976;9.584;2023-04-12T09:07:12;456.30;;;434.52;;
487;SDS011;16586;48.976;9.584;2023-04-12T09:09:41;486.85;;;463.60;;
487;SDS011;16586;48.976;9.584;2023-04-12T09:12:08;477.83;;;455.02;;
487;SDS011;16586;48.976;9.584;2023-04-12T09:14:36;482.40;;;459.40;;
487;SDS011;16586;48.976;9.584;2023-04-12T09:17:03;468.10;;;445.75;;
487;SDS011;16586;48.976;9.584;2023-04-12T09:19:31;497.63;;;473.88;;
487;SDS011;16586;48.976;9.584;2023-04-12T09:21:59;503.05;;;479.05;;
487;SDS011;16586;48.976;9.584;2023-04-12T09:24:27;513.00;;;488.50;;
487;SDS011;16586;48.976;9.584;2023-04-12T09:26:59;498.93;;;475.13;;
487;SDS011;16586;48.976;9.584;2023-04-12T09:29:28;514.47;;;489.92;;
487;SDS011;16586;48.976;9.584;2023-04-12T09:31:56;471.58;;;449.08;;
487;SDS011;16586;48.976;9.584;2023-04-12T09:34:25;461.13;;;439.13;;
487;SDS011;16586;48.976;9.584;2023-04-12T09:36:52;468.50;;;446.13;;
487;SDS011;16586;48.976;9.584;2023-04-12T09:39:19;463.80;;;441.67;;
487;SDS011;16586;48.976;9.584;2023-04-12T09:42:03;491.15;;;467.75;;
487;SDS011;16586;48.976;9.584;2023-04-12T09:44:31;520.67;;;495.83;;
487;SDS011;16586;48.976;9.584;2023-04-12T09:46:59;512.15;;;487.70;;
487;SDS011;16586;48.976;9.584;2023-04-12T09:49:36;516.67;;;492.02;;
487;SDS011;16586;48.976;9.584;2023-04-12T09:52:04;532.80;;;507.40;;
487;SDS011;16586;48.976;9.584;2023-04-12T09:54:32;480.48;;;457.55;;
487;SDS011;16586;48.976;9.584;2023-04-12T09:57:06;477.73;;;454.90;;
487;SDS011;16586;48.976;9.584;2023-04-12T09:59:35;519.17;;;494.40;;
487;SDS011;16586;48.976;9.584;2023-04-12T10:02:04;450.08;;;428.58;;
487;SDS011;16586;48.976;9.584;2023-04-12T10:04:38;451.00;;;429.50;;
487;SDS011;16586;48.976;9.584;2023-04-12T10:07:06;475.70;;;453.00;;
487;SDS011;16586;48.976;9.584;2023-04-12T10:09:33;460.23;;;438.27;;
487;SDS011;16586;48.976;9.584;2023-04-12T10:12:01;511.75;;;487.35;;
487;SDS011;16586;48.976;9.584;2023-04-12T10:14:30;542.40;;;516.50;;
487;SDS011;16586;48.976;9.584;2023-04-12T10:16:58;517.40;;;492.70;;
487;SDS011;16586;48.976;9.584;2023-04-12T10:19:26;532.95;;;507.52;;
487;SDS011;16586;48.976;9.584;2023-04-12T10:21:54;515.05;;;490.48;;
487;SDS011;16586;48.976;9.584;2023-04-12T10:24:21;551.28;;;524.97;;
487;SDS011;16586;48.976;9.584;2023-04-12T10:26:48;536.63;;;511.03;;
487;SDS011;16586;48.976;9.584;2023-04-12T10:29:22;539.67;;;513.92;;
487;SDS011;16586;48.976;9.584;2023-04-12T10:31:52;532.88;;;507.45;;
487;SDS011;16586;48.976;9.584;2023-04-12T10:34:22;561.65;;;534.88;;
487;SDS011;16586;48.976;9.584;2023-04-12T10:36:51;552.70;;;526.33;;
487;SDS011;16586;48.976;9.584;2023-04-12T10:39:33;588.15;;;560.05;;
487;SDS011;16586;48.976;9.584;2023-04-12T10:44:52;569.42;;;542.25;;
487;SDS011;16586;48.976;9.584;2023-04-12T10:50:26;517.72;;;493.02;;
487;SDS011;16586;48.976;9.584;2023-04-12T10:55:51;466.80;;;444.52;;
487;SDS011;16586;48.976;9.584;2023-04-12T11:01:23;400.20;;;381.10;;
487;SDS011;16586;48.976;9.584;2023-04-12T11:04:05;408.95;;;389.45;;
487;SDS011;16586;48.976;9.584;2023-04-12T11:06:42;388.02;;;369.50;;
487;SDS011;16586;48.976;9.584;2023-04-12T11:09:16;405.65;;;386.25;;
487;SDS011;16586;48.976;9.584;2023-04-12T11:11:44;429.13;;;408.63;;
487;SDS011;16586;48.976;9.584;2023-04-12T11:14:11;422.48;;;402.33;;
487;SDS011;16586;48.976;9.584;2023-04-12T11:19:50;450.60;;;429.10;;
487;SDS011;16586;48.976;9.584;2023-04-12T11:22:20;428.95;;;408.48;;
487;SDS011;16586;48.976;9.584;2023-04-12T11:24:48;460.90;;;438.90;;
487;SDS011;16586;48.976;9.584;2023-04-12T11:27:17;438.02;;;417.13;;
487;SDS011;16586;48.976;9.584;2023-04-12T11:29:49;435.08;;;414.30;;
487;SDS011;16586;48.976;9.584;2023-04-12T11:32:17;383.08;;;364.77;;
487;SDS011;16586;48.976;9.584;2023-04-12T11:34:44;394.42;;;375.60;;
487;SDS011;16586;48.976;9.584;2023-04-12T11:37:13;407.67;;;388.20;;
487;SDS011;16586;48.976;9.584;2023-04-12T11:39:43;409.52;;;389.98;;
487;SDS011;16586;48.976;9.584;2023-04-12T11:42:11;435.30;;;414.52;;
487;SDS011;16586;48.976;9.584;2023-04-12T11:44:39;419.42;;;399.40;;
487;SDS011;16586;48.976;9.584;2023-04-12T11:47:11;413.70;;;393.95;;
487;SDS011;16586;48.976;9.584;2023-04-12T11:49:44;432.45;;;411.83;;
487;SDS011;16586;48.976;9.584;2023-04-12T11:52:15;384.77;;;366.38;;
487;SDS011;16586;48.976;9.584;2023-04-12T11:54:51;380.60;;;362.40;;
487;SDS011;16586;48.976;9.584;2023-04-12T11:57:20;372.80;;;355.00;;
487;SDS011;16586;48.976;9.584;2023-04-12T11:59:47;391.10;;;372.42;;
487;SDS011;16586;48.976;9.584;2023-04-12T12:02:15;316.65;;;301.55;;
487;SDS011;16586;48.976;9.584;2023-04-12T12:04:46;333.77;;;317.83;;
487;SDS011;16586;48.976;9.584;2023-04-12T12:07:16;356.23;;;339.23;;
487;SDS011;16586;48.976;9.584;2023-04-12T12:09:43;366.23;;;348.73;;
487;SDS011;16586;48.976;9.584;2023-04-12T12:12:11;386.38;;;367.92;;
487;SDS011;16586;48.976;9.584;2023-04-12T12:14:38;367.67;;;350.13;;
487;SDS011;16586;48.976;9.584;2023-04-12T12:17:12;366.33;;;348.83;;
487;SDS011;16586;48.976;9.584;2023-04-12T12:19:42;376.67;;;358.70;;
487;SDS011;16586;48.976;9.584;2023-04-12T12:22:10;379.07;;;360.97;;
487;SDS011;16586;48.976;9.584;2023-04-12T12:24:39;354.67;;;337.73;;
487;SDS011;16586;48.976;9.584;2023-04-12T12:27:11;372.23;;;354.45;;
487;SDS011;16586;48.976;9.584;2023-04-12T12:29:39;379.67;;;361.58;;
487;SDS011;16586;48.976;9.584;2023-04-12T12:32:09;400.20;;;381.08;;
487;SDS011;16586;48.976;9.584;2023-04-12T12:34:37;404.23;;;384.92;;
487;SDS011;16586;48.976;9.584;2023-04-12T12:37:11;393.83;;;375.02;;
487;SDS011;16586;48.976;9.584;2023-04-12T12:39:45;407.95;;;388.45;;
487;SDS011;16586;48.976;9.584;2023-04-12T12:42:25;383.77;;;365.48;;
487;SDS011;16586;48.976;9.584;2023-04-12T12:44:59;436.50;;;415.70;;
487;SDS011;16586;48.976;9.584;2023-04-12T12:47:32;368.80;;;351.20;;
487;SDS011;16586;48.976;9.584;2023-04-12T12:50:09;370.00;;;352.30;;
487;SDS011;16586;48.976;9.584;2023-04-12T12:52:38;385.83;;;367.40;;
487;SDS011;16586;48.976;9.584;2023-04-12T12:55:07;369.67;;;352.02;;
487;SDS011;16586;48.976;9.584;2023-04-12T12:57:34;377.40;;;359.38;;
487;SDS011;16586;48.976;9.584;2023-04-12T13:00:01;372.17;;;354.40;;
487;SDS011;16586;48.976;9.584;2023-04-12T13:02:29;352.70;;;335.85;;
487;SDS011;16586;48.976;9.584;2023-04-12T13:04:56;399.35;;;380.27;;
487;SDS011;16586;48.976;9.584;2023-04-12T13:07:23;398.13;;;379.13;;
487;SDS011;16586;48.976;9.584;2023-04-12T13:09:50;405.40;;;386.05;;
487;SDS011;16586;48.976;9.584;2023-04-12T13:12:18;350.73;;;333.98;;
487;SDS011;16586;48.976;9.584;2023-04-12T13:14:46;387.30;;;368.80;;
487;SDS011;16586;48.976;9.584;2023-04-12T13:17:13;395.33;;;376.45;;
487;SDS011;16586;48.976;9.584;2023-04-12T13:19:40;409.50;;;389.95;;
487;SDS011;16586;48.976;9.584;2023-04-12T13:22:07;328.33;;;312.63;;
487;SDS011;16586;48.976;9.584;2023-04-12T13:24:34;353.25;;;336.35;;
487;SDS011;16586;48.976;9.584;2023-04-12T13:27:00;380.38;;;362.23;;
487;SDS011;16586;48.976;9.584;2023-04-12T13:29:29;359.60;;;342.40;;
487;SDS011;16586;48.976;9.584;2023-04-12T13:31:56;342.73;;;326.35;;
487;SDS011;16586;48.976;9.584;2023-04-12T13:34:23;355.85;;;338.85;;
487;SDS011;16586;48.976;9.584;2023-04-12T13:36:54;375.55;;;357.65;;
487;SDS011;16586;48.976;9.584;2023-04-12T13:39:21;404.65;;;385.33;;
487;SDS011;16586;48.976;9.584;2023-04-12T13:41:48;390.83;;;372.17;;
487;SDS011;16586;48.976;9.584;2023-04-12T13:44:15;411.67;;;392.00;;
487;SDS011;16586;48.976;9.584;2023-04-12T13:46:43;417.50;;;397.60;;
487;SDS011;16586;48.976;9.584;2023-04-12T13:49:10;420.20;;;400.10;;
487;SDS011;16586;48.976;9.584;2023-04-12T13:51:37;400.90;;;381.77;;
487;SDS011;16586;48.976;9.584;2023-04-12T13:54:06;433.98;;;413.27;;
487;SDS011;16586;48.976;9.584;2023-04-12T13:56:33;375.23;;;357.33;;
487;SDS011;16586;48.976;9.584;2023-04-12T13:59:03;410.58;;;390.98;;
487;SDS011;16586;48.976;9.584;2023-04-12T14:01:30;400.25;;;381.15;;
487;SDS011;16586;48.976;9.584;2023-04-12T14:03:58;421.10;;;401.00;;
487;SDS011;16586;48.976;9.584;2023-04-12T14:06:25;421.83;;;401.70;;
487;SDS011;16586;48.976;9.584;2023-04-12T14:08:51;510.45;;;486.10;;
487;SDS011;16586;48.976;9.584;2023-04-12T14:11:21;528.50;;;503.30;;
487;SDS011;16586;48.976;9.584;2023-04-12T14:13:49;550.53;;;524.28;;
487;SDS011;16586;48.976;9.584;2023-04-12T14:16:17;423.30;;;403.10;;
487;SDS011;16586;48.976;9.584;2023-04-12T14:18:44;443.40;;;422.23;;
487;SDS011;16586;48.976;9.584;2023-04-12T14:21:12;401.95;;;382.77;;
487;SDS011;16586;48.976;9.584;2023-04-12T14:23:39;422.38;;;402.23;;
487;SDS011;16586;48.976;9.584;2023-04-12T14:26:06;444.60;;;423.37;;
487;SDS011;16586;48.976;9.584;2023-04-12T14:28:33;457.40;;;435.58;;
487;SDS011;16586;48.976;9.584;2023-04-12T14:31:00;422.20;;;402.08;;
487;SDS011;16586;48.976;9.584;2023-04-12T14:33:27;451.95;;;430.38;;
487;SDS011;16586;48.976;9.584;2023-04-12T14:35:54;396.10;;;377.17;;
487;SDS011;16586;48.976;9.584;2023-04-12T14:38:23;399.23;;;380.17;;
487;SDS011;16586;48.976;9.584;2023-04-12T14:40:49;427.40;;;407.00;;
487;SDS011;16586;48.976;9.584;2023-04-12T14:43:18;435.60;;;414.77;;